PST,Max TemperatureF,Mean TemperatureF,Min TemperatureF,Max Dew PointF,MeanDew PointF,Min DewpointF,Max Humidity, Mean Humidity, Min Humidity, Max Sea Level PressureIn, Mean Sea Level PressureIn, Min Sea Level PressureIn, Max VisibilityMiles, Mean VisibilityMiles, Min VisibilityMiles, Max Wind SpeedMPH, Mean Wind SpeedMPH, Max Gust SpeedMPH,PrecipitationIn, CloudCover, Events, WindDirDegrees
2012-11-1,64,56,47,50,47,45,93,75,56,30.06,29.97,29.83,10,10,10,12,3,17,0.03,5,Rain,204
2012-11-2,58,52,45,52,46,43,100,84,67,30.06,30.03,29.97,10,5,0,7,0,8,0.05,6,Fog-Rain,165
2012-11-3,70,59,48,55,51,48,100,77,53,30.20,30.10,30.02,10,5,0,7,1,22,0.00,5,Fog,117
2012-11-4,76,65,54,56,55,53,93,70,46,30.35,30.29,30.21,10,10,10,5,0,6,0.00,4,,260
2012-11-5,66,59,51,56,53,50,100,87,73,30.36,30.28,30.14,10,4,0,5,0,6,0.01,6,Fog,146
2012-11-6,65,59,53,56,53,48,100,86,72,30.14,30.09,30.03,10,6,0,8,1,17,0.00,6,Fog,107
2012-11-7,59,51,43,52,43,36,93,68,43,30.20,30.12,29.94,10,10,9,13,3,16,0.01,4,,334
2012-11-8,47,43,38,41,39,36,93,82,71,29.92,29.81,29.77,10,8,2,8,1,13,0.09,7,Rain,175
2012-11-9,49,42,34,40,36,33,100,86,71,29.96,29.92,29.88,10,6,1,15,2,21,0.23,7,Rain,112
2012-11-10,50,42,33,39,36,33,100,81,61,30.26,30.07,29.96,10,4,0,7,0,12,0.00,7,Fog,337
2012-11-11,50,43,36,43,38,35,92,82,71,30.33,30.29,30.27,10,10,9,13,1,14,0.02,6,Rain,160
2012-11-12,56,51,45,49,45,39,93,80,66,30.27,30.25,30.23,10,9,6,12,3,17,0.09,8,Rain,166
2012-11-13,57,52,47,49,47,45,100,89,77,30.26,30.21,30.16,10,7,1,7,1,8,T,6,,35
2012-11-14,56,51,46,47,45,42,100,83,66,30.28,30.23,30.16,10,8,0,10,3,15,0.00,6,Fog,359
2012-11-15,59,52,44,45,43,40,93,75,57,30.14,30.02,29.94,10,10,7,7,2,13,0.00,3,,15
2012-11-16,54,47,40,46,42,39,100,86,71,29.96,29.91,29.76,10,4,0,7,1,8,0.02,5,Fog-Rain,160
2012-11-17,57,48,38,50,43,37,100,92,83,29.91,29.75,29.64,10,6,1,13,1,21,0.38,7,Rain,194
2012-11-18,55,47,38,42,39,37,96,74,51,29.93,29.86,29.81,10,10,7,20,8,31,0.07,7,Rain,175
2012-11-19,65,59,53,54,48,41,100,78,55,29.82,29.75,29.66,10,8,2,25,10,37,1.73,8,Rain,161
2012-11-20,57,52,47,52,49,46,100,89,77,29.79,29.73,29.68,10,5,2,13,4,20,2.19,8,Rain,189
2012-11-21,53,48,42,46,41,39,96,80,63,30.32,30.12,29.73,10,8,2,15,4,25,0.34,6,Rain,173
2012-11-22,51,46,40,43,40,38,100,84,68,30.36,30.32,30.28,10,7,0,7,1,9,0.00,4,Fog,153
2012-11-23,52,46,39,46,41,37,100,86,71,30.32,30.28,30.21,10,5,0,7,1,9,0.00,6,Fog,187
2012-11-24,55,51,47,52,48,45,100,92,83,30.23,30.20,30.17,10,5,1,12,1,17,0.84,8,Rain,329
2012-11-25,48,45,42,44,40,38,89,83,76,30.22,30.16,30.07,10,10,10,12,5,15,0.00,8,,355
2012-11-26,52,47,42,45,42,39,96,84,71,30.07,30.04,29.99,10,8,1,8,1,10,0.00,7,,318
2012-11-27,48,46,43,43,43,42,100,93,86,30.05,29.99,29.86,10,6,1,5,1,7,0.00,8,,358
2012-11-28,62,52,42,46,42,39,100,75,49,29.83,29.70,29.64,10,7,1,16,4,26,0.01,6,Rain,175
2012-11-29,60,54,47,48,44,37,100,72,44,29.73,29.63,29.52,10,8,2,17,5,24,1.60,7,Rain,176
2012-11-30,61,54,46,50,47,43,100,79,57,29.61,29.55,29.48,10,6,2,17,4,33,0.63,7,Rain,165